Time;durP1;ratioP1;P1;durP2;ratioP2;P2;SDS_P1;SDS_P2;PMS_P1;PMS_P2;Temp;Humidity;BMP_temperature;BMP_pressure;BME280_temperature;BME280_humidity;BME280_pressure;Samples;Min_cycle;Max_cycle;Signal;HPM_P1;HPM_P2
2022/08/19 00:00:07;;;;;;;;;;;17.50;99.90;;;;;;5073863;28;19915;-65
2022/08/19 00:02:33;;;;;;;;;;;17.50;99.90;;;;;;5074085;28;20016;-64
2022/08/19 00:04:58;;;;;;;;;;;17.50;99.90;;;;;;5074051;28;19959;-64
2022/08/19 00:07:24;;;;;;;;;;;17.40;99.90;;;;;;5073809;28;20370;-64
2022/08/19 00:09:49;;;;;;;;;;;17.30;99.90;;;;;;5074006;28;19957;-64
2022/08/19 00:12:15;;;;;;;;;;;17.30;99.90;;;;;;5073620;28;20381;-64
2022/08/19 00:14:41;;;;;;;;;;;17.30;99.90;;;;;;5073926;28;19914;-65
2022/08/19 00:17:07;;;;;;;;;;;17.20;99.90;;;;;;5055741;28;19913;-64
2022/08/19 00:19:33;;;;;;;;;;;17.20;99.90;;;;;;5073636;28;19908;-64
2022/08/19 00:21:58;;;;;;;;;;;17.20;99.90;;;;;;5074171;28;19912;-64
2022/08/19 00:24:24;;;;;;;;;;;17.20;99.90;;;;;;5073838;28;19908;-64
2022/08/19 00:26:50;;;;;;;;;;;17.10;99.90;;;;;;5055940;28;19915;-64
2022/08/19 00:29:17;;;;;;;;;;;17.10;99.90;;;;;;5073805;28;19915;-64
2022/08/19 00:31:43;;;;;;;;;;;17.10;99.90;;;;;;5073384;28;19920;-64
2022/08/19 00:34:09;;;;;;;;;;;17.10;99.90;;;;;;5055556;28;19957;-64
2022/08/19 00:36:34;;;;;;;;;;;17.00;99.90;;;;;;5073509;28;20007;-64
2022/08/19 00:39:00;;;;;;;;;;;17.00;99.90;;;;;;5073457;28;19957;-64
2022/08/19 00:41:25;;;;;;;;;;;17.00;99.90;;;;;;5073668;28;19909;-64
2022/08/19 00:44:09;;;;;;;;;;;17.00;99.90;;;;;;5073337;28;20001;-64
2022/08/19 00:46:36;;;;;;;;;;;17.00;99.90;;;;;;5073605;28;19959;-65
2022/08/19 00:49:06;;;;;;;;;;;17.00;99.90;;;;;;5073574;28;19958;-64
2022/08/19 00:51:32;;;;;;;;;;;17.00;99.90;;;;;;5073523;28;20367;-64
2022/08/19 00:53:58;;;;;;;;;;;16.90;99.90;;;;;;5073553;28;19916;-64
2022/08/19 00:56:26;;;;;;;;;;;16.90;99.90;;;;;;5073298;28;19966;-64
2022/08/19 00:58:51;;;;;;;;;;;16.90;99.90;;;;;;5073514;28;20007;-64
2022/08/19 01:01:17;;;;;;;;;;;16.80;99.90;;;;;;5073224;28;20355;-64
2022/08/19 01:03:42;;;;;;;;;;;16.80;99.90;;;;;;5073452;28;20320;-64
2022/08/19 01:06:08;;;;;;;;;;;16.80;99.90;;;;;;5073448;28;19908;-64
2022/08/19 01:08:33;;;;;;;;;;;16.80;99.90;;;;;;5073455;28;20264;-64
2022/08/19 01:10:59;;;;;;;;;;;16.70;99.90;;;;;;5073375;28;20334;-64
2022/08/19 01:13:27;;;;;;;;;;;16.70;99.90;;;;;;5073347;28;20065;-64
2022/08/19 01:15:56;;;;;;;;;;;16.70;99.90;;;;;;5073359;28;19916;-64
2022/08/19 01:18:21;;;;;;;;;;;16.70;99.90;;;;;;5074800;28;19943;-64
2022/08/19 01:20:47;;;;;;;;;;;16.70;99.90;;;;;;5076814;28;20337;-64
2022/08/19 01:23:13;;;;;;;;;;;16.70;99.90;;;;;;5076998;28;19908;-65
2022/08/19 01:25:43;;;;;;;;;;;16.70;99.90;;;;;;5058837;28;19948;-64
2022/08/19 01:28:14;;;;;;;;;;;16.70;99.90;;;;;;5076662;28;20003;-64
2022/08/19 01:30:39;;;;;;;;;;;16.70;99.90;;;;;;5076383;28;19959;-64
2022/08/19 01:33:05;;;;;;;;;;;16.70;99.90;;;;;;5076504;28;19944;-64
2022/08/19 01:35:32;;;;;;;;;;;16.60;99.90;;;;;;5076603;28;19908;-64
2022/08/19 01:38:00;;;;;;;;;;;16.60;99.90;;;;;;5076772;28;19915;-64
2022/08/19 01:40:28;;;;;;;;;;;16.60;99.90;;;;;;5076741;28;20286;-64
2022/08/19 01:42:55;;;;;;;;;;;16.60;99.90;;;;;;5076699;28;19932;-64
2022/08/19 01:45:21;;;;;;;;;;;16.60;99.90;;;;;;5076613;28;19955;-64
2022/08/19 01:47:47;;;;;;;;;;;16.60;99.90;;;;;;5076328;28;19966;-64
2022/08/19 01:50:13;;;;;;;;;;;16.60;99.90;;;;;;5076585;28;19912;-64
2022/08/19 01:52:40;;;;;;;;;;;16.60;99.90;;;;;;5076146;28;19919;-64
2022/08/19 01:55:07;;;;;;;;;;;16.50;99.90;;;;;;5076489;28;19909;-64
2022/08/19 01:57:33;;;;;;;;;;;16.50;99.90;;;;;;5076428;28;20002;-64
2022/08/19 01:59:59;;;;;;;;;;;16.40;99.90;;;;;;5076387;28;20318;-64
2022/08/19 02:02:25;;;;;;;;;;;16.40;99.90;;;;;;5076326;28;19916;-64
2022/08/19 02:04:50;;;;;;;;;;;16.40;99.90;;;;;;5076292;28;19908;-64
2022/08/19 02:07:18;;;;;;;;;;;16.40;99.90;;;;;;5075979;28;20392;-64
2022/08/19 02:09:44;;;;;;;;;;;16.30;99.90;;;;;;5057916;28;19913;-64
2022/08/19 02:12:09;;;;;;;;;;;16.30;99.90;;;;;;5076093;28;19920;-64
2022/08/19 02:14:35;;;;;;;;;;;16.30;99.90;;;;;;5076127;28;19915;-65
2022/08/19 02:17:01;;;;;;;;;;;16.30;99.90;;;;;;5075785;28;19915;-64
2022/08/19 02:19:27;;;;;;;;;;;16.30;99.90;;;;;;5076016;28;19915;-64
2022/08/19 02:21:52;;;;;;;;;;;16.30;99.90;;;;;;5075971;28;19908;-64
2022/08/19 02:24:18;;;;;;;;;;;16.30;99.90;;;;;;5075939;28;19908;-64
2022/08/19 02:26:43;;;;;;;;;;;16.40;99.90;;;;;;5075589;28;19908;-64
2022/08/19 02:29:09;;;;;;;;;;;16.30;99.90;;;;;;5075743;28;19951;-65
2022/08/19 02:31:34;;;;;;;;;;;16.30;99.90;;;;;;5075400;28;19931;-64
2022/08/19 02:34:00;;;;;;;;;;;16.30;99.90;;;;;;5057957;28;19915;-64
2022/08/19 02:36:26;;;;;;;;;;;16.30;99.90;;;;;;5075408;28;20280;-64
2022/08/19 02:38:51;;;;;;;;;;;16.30;99.90;;;;;;5075639;28;19955;-64
2022/08/19 02:41:19;;;;;;;;;;;16.30;99.90;;;;;;5075374;28;19908;-65
2022/08/19 02:43:44;;;;;;;;;;;16.30;99.90;;;;;;5075497;28;20412;-64
2022/08/19 02:46:14;;;;;;;;;;;16.30;99.90;;;;;;5075112;28;19908;-64
2022/08/19 02:48:39;;;;;;;;;;;16.20;99.90;;;;;;5075180;28;19912;-64
2022/08/19 02:51:05;;;;;;;;;;;16.20;99.90;;;;;;5075328;28;19962;-64
2022/08/19 02:53:31;;;;;;;;;;;16.20;99.90;;;;;;5075057;28;19915;-64
2022/08/19 02:55:56;;;;;;;;;;;16.20;99.90;;;;;;5075284;28;19916;-64
2022/08/19 02:58:23;;;;;;;;;;;16.20;99.90;;;;;;5075245;28;19909;-64
2022/08/19 03:00:50;;;;;;;;;;;16.20;99.90;;;;;;5075170;28;19958;-64
2022/08/19 03:03:16;;;;;;;;;;;16.20;99.90;;;;;;5075139;28;20444;-64
2022/08/19 03:05:42;;;;;;;;;;;16.20;99.90;;;;;;5056944;28;19909;-64
2022/08/19 03:08:11;;;;;;;;;;;16.20;99.90;;;;;;5075057;28;19955;-65
2022/08/19 03:10:43;;;;;;;;;;;16.10;99.90;;;;;;5075051;28;20025;-64
2022/08/19 03:13:09;;;;;;;;;;;16.10;99.90;;;;;;5074884;28;19935;-64
2022/08/19 03:15:38;;;;;;;;;;;16.20;99.90;;;;;;5074594;28;19908;-64
2022/08/19 03:18:03;;;;;;;;;;;16.10;99.90;;;;;;5074607;28;19962;-64
2022/08/19 03:20:29;;;;;;;;;;;16.10;99.90;;;;;;5074799;28;19916;-64
2022/08/19 03:22:54;;;;;;;;;;;16.10;99.90;;;;;;5074442;28;19909;-64
2022/08/19 03:25:20;;;;;;;;;;;16.00;99.90;;;;;;5074425;28;19915;-64
2022/08/19 03:27:48;;;;;;;;;;;16.00;99.90;;;;;;5074655;28;19916;-64
2022/08/19 03:30:14;;;;;;;;;;;16.00;99.90;;;;;;5074549;28;19908;-65
2022/08/19 03:32:39;;;;;;;;;;;16.00;99.90;;;;;;5074060;28;20397;-64
2022/08/19 03:35:05;;;;;;;;;;;16.00;99.90;;;;;;5074281;28;20383;-64
2022/08/19 03:37:31;;;;;;;;;;;16.00;99.90;;;;;;5074534;28;20286;-64
2022/08/19 03:39:56;;;;;;;;;;;16.00;99.90;;;;;;5074110;28;19909;-64
2022/08/19 03:42:22;;;;;;;;;;;16.00;99.90;;;;;;5073962;28;19909;-65
2022/08/19 03:44:47;;;;;;;;;;;16.00;99.90;;;;;;5074359;28;20109;-64
2022/08/19 03:47:16;;;;;;;;;;;16.00;99.90;;;;;;5074329;28;19908;-64
2022/08/19 03:49:41;;;;;;;;;;;15.90;99.90;;;;;;5074323;28;19909;-64
2022/08/19 03:52:07;;;;;;;;;;;15.90;99.90;;;;;;5074184;28;19919;-64
2022/08/19 03:54:33;;;;;;;;;;;15.90;99.90;;;;;;5074253;28;19999;-64
2022/08/19 03:56:59;;;;;;;;;;;15.90;99.90;;;;;;5074157;28;19909;-64
2022/08/19 03:59:26;;;;;;;;;;;15.90;99.90;;;;;;5055866;28;20504;-64
2022/08/19 04:01:53;;;;;;;;;;;15.90;99.90;;;;;;5074132;28;20423;-64
2022/08/19 04:04:19;;;;;;;;;;;15.80;99.90;;;;;;5056268;28;20358;-64
2022/08/19 04:06:47;;;;;;;;;;;15.80;99.90;;;;;;5073745;28;19912;-64
2022/08/19 04:09:12;;;;;;;;;;;15.80;99.90;;;;;;5073731;28;19909;-64
2022/08/19 04:11:42;;;;;;;;;;;15.80;99.90;;;;;;5073939;28;19920;-65
2022/08/19 04:14:09;;;;;;;;;;;15.80;99.90;;;;;;5073704;28;19915;-64
2022/08/19 04:16:35;;;;;;;;;;;15.80;99.90;;;;;;5073978;28;20286;-64
2022/08/19 04:19:01;;;;;;;;;;;15.80;99.90;;;;;;5073679;28;19908;-64
2022/08/19 04:21:27;;;;;;;;;;;15.80;99.90;;;;;;5073878;28;19912;-64
2022/08/19 04:23:53;;;;;;;;;;;15.80;99.90;;;;;;5073873;28;19915;-64
2022/08/19 04:26:21;;;;;;;;;;;15.80;99.90;;;;;;5055708;28;20453;-64
2022/08/19 04:28:47;;;;;;;;;;;15.80;99.90;;;;;;5073631;28;19909;-64
2022/08/19 04:31:14;;;;;;;;;;;15.80;99.90;;;;;;5073451;28;19974;-65
2022/08/19 04:33:40;;;;;;;;;;;15.80;99.90;;;;;;5073727;28;19935;-64
2022/08/19 04:36:06;;;;;;;;;;;15.70;99.90;;;;;;5073777;28;19987;-64
2022/08/19 04:38:31;;;;;;;;;;;15.80;99.90;;;;;;5073656;28;19995;-64
2022/08/19 04:43:48;;;;;;;;;;;15.80;99.90;;;;;;5073180;28;20017;-64
2022/08/19 04:46:13;;;;;;;;;;;15.80;99.90;;;;;;5073261;28;19909;-64
2022/08/19 04:48:39;;;;;;;;;;;15.80;99.90;;;;;;5073400;28;19912;-64
2022/08/19 04:51:06;;;;;;;;;;;15.90;99.90;;;;;;5073290;28;19908;-64
2022/08/19 04:53:33;;;;;;;;;;;16.00;99.90;;;;;;5075470;28;19909;-64
2022/08/19 04:55:59;;;;;;;;;;;16.10;99.90;;;;;;5077312;28;20394;-64
2022/08/19 04:58:25;;;;;;;;;;;16.10;99.90;;;;;;5059347;28;19913;-64
2022/08/19 05:00:51;;;;;;;;;;;16.20;99.90;;;;;;5077139;28;19978;-64
2022/08/19 05:03:17;;;;;;;;;;;16.30;99.90;;;;;;5077401;28;19908;-64
2022/08/19 05:05:44;;;;;;;;;;;16.30;99.90;;;;;;5077420;28;19958;-64
2022/08/19 05:08:10;;;;;;;;;;;16.30;99.90;;;;;;5077324;28;19908;-64
2022/08/19 05:10:36;;;;;;;;;;;16.30;99.90;;;;;;5077299;28;20248;-64
2022/08/19 05:13:02;;;;;;;;;;;16.40;99.90;;;;;;5076868;28;19912;-65
2022/08/19 05:15:28;;;;;;;;;;;16.40;99.90;;;;;;5076911;28;20003;-64
2022/08/19 05:23:24;;;;;;;;;;;16.40;99.90;;;;;;5076556;28;20276;-64
2022/08/19 05:25:51;;;;;;;;;;;16.50;99.90;;;;;;5076698;28;19912;-65
2022/08/19 05:28:18;;;;;;;;;;;16.40;99.90;;;;;;5077026;28;19909;-64
2022/08/19 05:30:45;;;;;;;;;;;16.50;99.90;;;;;;5076678;28;20283;-65
2022/08/19 05:33:11;;;;;;;;;;;16.60;99.90;;;;;;5076850;28;19955;-65
2022/08/19 05:35:38;;;;;;;;;;;16.80;99.90;;;;;;5076941;28;19913;-64
2022/08/19 05:38:05;;;;;;;;;;;16.90;99.90;;;;;;5076854;28;19915;-65
2022/08/19 05:40:31;;;;;;;;;;;17.00;99.90;;;;;;5076795;28;19919;-65
2022/08/19 05:42:56;;;;;;;;;;;17.20;99.90;;;;;;5076378;28;19909;-65
2022/08/19 05:45:21;;;;;;;;;;;17.40;99.90;;;;;;5076485;28;19922;-65
2022/08/19 05:47:48;;;;;;;;;;;17.70;99.90;;;;;;5058365;28;20393;-64
2022/08/19 05:50:13;;;;;;;;;;;18.00;99.90;;;;;;5076586;28;19923;-65
2022/08/19 05:52:39;;;;;;;;;;;18.40;99.90;;;;;;5076532;28;19913;-65
2022/08/19 05:55:05;;;;;;;;;;;18.70;99.90;;;;;;5058428;28;19916;-64
2022/08/19 05:57:31;;;;;;;;;;;19.30;99.90;;;;;;5058307;28;19916;-64
2022/08/19 05:59:57;;;;;;;;;;;19.50;99.90;;;;;;5076427;28;19909;-64
2022/08/19 06:02:22;;;;;;;;;;;19.90;99.90;;;;;;5072050;28;19908;-65
2022/08/19 06:04:49;;;;;;;;;;;20.30;99.90;;;;;;5067780;28;20280;-65
2022/08/19 06:07:15;;;;;;;;;;;20.50;99.90;;;;;;5061243;28;19916;-65
2022/08/19 06:09:40;;;;;;;;;;;20.90;99.90;;;;;;5063538;28;19917;-65
2022/08/19 06:12:06;;;;;;;;;;;21.60;99.90;;;;;;5059116;28;20409;-65
2022/08/19 06:14:34;;;;;;;;;;;22.20;99.90;;;;;;5065067;28;19909;-67
2022/08/19 06:17:01;;;;;;;;;;;22.50;99.90;;;;;;5069533;28;20040;-67
2022/08/19 06:19:29;;;;;;;;;;;22.80;99.90;;;;;;5071735;28;19908;-67
2022/08/19 06:21:56;;;;;;;;;;;23.10;99.90;;;;;;5038335;28;19916;-67
2022/08/19 06:24:23;;;;;;;;;;;23.40;99.90;;;;;;5064691;28;20248;-67
2022/08/19 06:26:50;;;;;;;;;;;23.20;99.90;;;;;;5072414;28;19908;-68
2022/08/19 06:29:17;;;;;;;;;;;23.00;99.90;;;;;;5067615;28;20317;-67
2022/08/19 06:31:44;;;;;;;;;;;22.40;99.90;;;;;;5055221;28;19927;-67
2022/08/19 06:34:10;;;;;;;;;;;21.70;99.90;;;;;;5064644;28;19919;-67
2022/08/19 06:36:38;;;;;;;;;;;21.40;99.90;;;;;;5072633;28;19912;-67
2022/08/19 06:39:05;;;;;;;;;;;21.60;99.90;;;;;;5075381;28;19908;-67
2022/08/19 06:41:31;;;;;;;;;;;22.10;99.90;;;;;;5057841;28;20337;-67
2022/08/19 06:43:57;;;;;;;;;;;23.10;99.90;;;;;;5072692;28;19909;-67
2022/08/19 06:46:22;;;;;;;;;;;23.70;99.90;;;;;;5074942;28;19913;-67
2022/08/19 06:48:48;;;;;;;;;;;23.20;99.90;;;;;;5074902;28;19931;-67
2022/08/19 06:51:16;;;;;;;;;;;23.50;99.90;;;;;;5075282;28;19917;-67
2022/08/19 06:53:45;;;;;;;;;;;23.70;99.90;;;;;;5075348;28;19909;-67
2022/08/19 06:56:11;;;;;;;;;;;24.30;99.90;;;;;;5074952;28;20317;-67
2022/08/19 06:58:37;;;;;;;;;;;24.20;99.90;;;;;;5075029;28;19908;-67
2022/08/19 07:01:03;;;;;;;;;;;24.40;99.90;;;;;;5075186;28;20295;-67
2022/08/19 07:03:31;;;;;;;;;;;24.00;99.90;;;;;;5075129;28;19909;-67
2022/08/19 07:05:56;;;;;;;;;;;23.40;99.90;;;;;;5074779;28;20402;-66
2022/08/19 07:08:22;;;;;;;;;;;23.20;99.90;;;;;;5074732;28;19908;-66
2022/08/19 07:10:48;;;;;;;;;;;23.40;99.90;;;;;;5074715;28;20046;-66
2022/08/19 07:13:14;;;;;;;;;;;23.30;99.90;;;;;;5074843;28;19913;-66
2022/08/19 07:15:40;;;;;;;;;;;23.40;99.90;;;;;;5056068;28;19917;-66
2022/08/19 07:18:05;;;;;;;;;;;22.90;99.90;;;;;;5074807;28;20256;-66
2022/08/19 07:20:32;;;;;;;;;;;22.50;99.90;;;;;;5074372;28;19912;-66
2022/08/19 07:22:58;;;;;;;;;;;22.30;99.90;;;;;;5074697;28;20007;-66
2022/08/19 07:25:23;;;;;;;;;;;22.40;99.90;;;;;;5074005;28;19951;-66
2022/08/19 07:27:49;;;;;;;;;;;22.40;99.90;;;;;;5074283;28;19919;-66
2022/08/19 07:30:14;;;;;;;;;;;22.50;99.90;;;;;;5073948;28;19919;-66
2022/08/19 07:32:40;;;;;;;;;;;23.00;99.90;;;;;;5056002;28;20413;-66
2022/08/19 07:35:06;;;;;;;;;;;23.00;99.90;;;;;;5074535;28;19909;-66
2022/08/19 07:37:32;;;;;;;;;;;23.00;99.90;;;;;;5074392;28;20349;-66
2022/08/19 07:39:57;;;;;;;;;;;23.30;99.90;;;;;;5073743;28;19912;-66
2022/08/19 07:42:23;;;;;;;;;;;23.60;99.90;;;;;;5056232;28;20060;-66
2022/08/19 07:44:48;;;;;;;;;;;23.50;99.90;;;;;;5074127;28;19913;-66
2022/08/19 07:47:15;;;;;;;;;;;23.30;99.90;;;;;;5074034;28;19909;-66
2022/08/19 07:49:41;;;;;;;;;;;23.20;99.90;;;;;;5073977;28;20000;-67
2022/08/19 07:52:08;;;;;;;;;;;23.20;99.90;;;;;;5073806;28;19920;-67
2022/08/19 07:54:35;;;;;;;;;;;23.10;99.90;;;;;;5073716;28;19912;-67
2022/08/19 07:57:01;;;;;;;;;;;23.00;99.90;;;;;;5074102;28;19955;-67
2022/08/19 07:59:28;;;;;;;;;;;23.30;99.90;;;;;;5073884;28;20362;-67
2022/08/19 08:01:53;;;;;;;;;;;23.60;99.90;;;;;;5072449;28;19959;-68
2022/08/19 08:09:52;;;;;;;;;;;24.30;99.90;;;;;;5073448;28;19909;-67
2022/08/19 08:12:22;;;;;;;;;;;25.00;99.90;;;;;;5072827;28;19924;-67
2022/08/19 08:14:49;;;;;;;;;;;25.90;99.90;;;;;;5073150;28;19913;-67
2022/08/19 08:17:15;;;;;;;;;;;26.50;99.90;;;;;;5073638;28;19915;-67
2022/08/19 08:19:41;;;;;;;;;;;26.80;99.90;;;;;;5073856;28;19909;-67
2022/08/19 08:22:07;;;;;;;;;;;27.10;99.90;;;;;;5079245;28;20037;-67
2022/08/19 08:24:35;;;;;;;;;;;27.00;99.90;;;;;;5080027;28;19970;-68
2022/08/19 08:27:01;;;;;;;;;;;28.00;99.90;;;;;;5074997;28;19912;-67
2022/08/19 08:29:27;;;;;;;;;;;28.10;99.90;;;;;;5079720;28;19916;-68
2022/08/19 08:31:53;;;;;;;;;;;28.80;99.90;;;;;;5075773;28;20022;-68
2022/08/19 08:34:19;;;;;;;;;;;28.90;99.90;;;;;;5073077;28;19963;-68
2022/08/19 08:36:45;;;;;;;;;;;29.30;99.90;;;;;;5069501;28;19923;-66
2022/08/19 08:39:14;;;;;;;;;;;29.20;99.90;;;;;;5074105;28;19912;-66
2022/08/19 08:41:50;;;;;;;;;;;29.00;99.90;;;;;;5077162;28;19908;-65
2022/08/19 08:44:18;;;;;;;;;;;28.90;99.90;;;;;;5071450;28;19916;-65
2022/08/19 08:46:46;;;;;;;;;;;28.20;99.90;;;;;;5067636;28;19919;-67
2022/08/19 08:52:00;;;;;;;;;;;28.70;99.90;;;;;;5070968;28;19913;-67
2022/08/19 08:54:30;;;;;;;;;;;28.50;99.90;;;;;;5066861;28;19925;-67
2022/08/19 08:56:56;;;;;;;;;;;28.30;99.90;;;;;;5062806;28;19920;-68
2022/08/19 08:59:26;;;;;;;;;;;28.90;99.90;;;;;;5068713;28;19935;-67
2022/08/19 09:01:51;;;;;;;;;;;28.30;99.90;;;;;;5084204;28;19916;-67
2022/08/19 09:04:17;;;;;;;;;;;28.50;99.90;;;;;;5069857;28;20275;-68
2022/08/19 09:09:32;;;;;;;;;;;29.10;99.90;;;;;;5099908;27;19924;-69
2022/08/19 09:12:06;;;;;;;;;;;28.30;99.90;;;;;;5100252;28;19920;-68
2022/08/19 09:17:10;;;;;;;;;;;26.90;99.90;;;;;;5071324;28;19920;-67
2022/08/19 09:19:46;;;;;;;;;;;27.80;99.90;;;;;;5070628;28;20003;-68
2022/08/19 09:22:11;;;;;;;;;;;27.60;99.90;;;;;;5050892;28;20346;-67
2022/08/19 09:24:38;;;;;;;;;;;28.00;99.90;;;;;;5048131;28;20000;-68
2022/08/19 09:27:03;;;;;;;;;;;27.70;99.90;;;;;;5068197;28;19947;-67
2022/08/19 09:29:30;;;;;;;;;;;27.30;99.90;;;;;;5036129;28;20303;-67
2022/08/19 09:31:55;;;;;;;;;;;27.30;99.90;;;;;;5063222;28;20260;-67
2022/08/19 09:34:21;;;;;;;;;;;27.30;99.90;;;;;;5045749;28;19924;-67
2022/08/19 09:36:47;;;;;;;;;;;27.10;99.90;;;;;;5048930;28;19925;-67
2022/08/19 09:39:12;;;;;;;;;;;27.10;99.90;;;;;;5036989;28;20406;-67
2022/08/19 09:41:38;;;;;;;;;;;27.00;99.90;;;;;;5029141;28;19910;-67
2022/08/19 09:44:03;;;;;;;;;;;26.60;99.90;;;;;;5038656;28;19909;-67
2022/08/19 09:46:30;;;;;;;;;;;26.40;99.90;;;;;;5047872;28;20308;-67
2022/08/19 09:48:58;;;;;;;;;;;27.00;99.90;;;;;;5048850;28;19916;-67
2022/08/19 09:51:25;;;;;;;;;;;27.40;99.90;;;;;;5048665;28;19916;-66
2022/08/19 09:53:53;;;;;;;;;;;27.50;99.90;;;;;;5046704;28;19913;-64
2022/08/19 09:56:19;;;;;;;;;;;27.30;99.90;;;;;;5038309;28;20433;-64
2022/08/19 09:58:45;;;;;;;;;;;26.70;99.90;;;;;;5038589;28;19984;-64
2022/08/19 10:01:16;;;;;;;;;;;26.40;99.90;;;;;;5048863;28;19959;-65
2022/08/19 10:03:41;;;;;;;;;;;26.20;99.90;;;;;;5047698;28;20362;-64
2022/08/19 10:06:08;;;;;;;;;;;26.70;99.90;;;;;;5067304;28;19908;-66
2022/08/19 10:08:36;;;;;;;;;;;27.20;99.90;;;;;;5055026;28;20380;-65
2022/08/19 10:11:03;;;;;;;;;;;27.40;99.90;;;;;;5048086;28;19945;-65
2022/08/19 10:13:29;;;;;;;;;;;28.00;99.90;;;;;;5050144;28;19909;-65
2022/08/19 10:15:56;;;;;;;;;;;28.10;99.90;;;;;;5055714;28;20429;-65
2022/08/19 10:18:23;;;;;;;;;;;27.50;99.90;;;;;;5066645;28;19913;-65
2022/08/19 10:20:50;;;;;;;;;;;27.30;99.90;;;;;;5068061;28;20391;-65
2022/08/19 10:23:16;;;;;;;;;;;27.60;99.90;;;;;;5068059;28;19919;-65
2022/08/19 10:25:42;;;;;;;;;;;28.10;99.90;;;;;;5070476;28;20355;-65
2022/08/19 10:28:08;;;;;;;;;;;28.90;99.90;;;;;;5039570;28;19916;-65
2022/08/19 10:30:35;;;;;;;;;;;28.80;99.90;;;;;;5029706;28;20375;-65
2022/08/19 10:33:01;;;;;;;;;;;29.80;98.90;;;;;;5053022;28;20020;-65
2022/08/19 10:35:29;;;;;;;;;;;30.40;98.20;;;;;;5051199;28;20023;-65
2022/08/19 10:37:58;;;;;;;;;;;30.50;96.50;;;;;;5032575;28;19917;-65
2022/08/19 10:40:25;;;;;;;;;;;30.70;96.80;;;;;;5046915;28;19920;-65
2022/08/19 10:42:50;;;;;;;;;;;30.70;96.10;;;;;;5056299;28;19982;-65
2022/08/19 10:45:16;;;;;;;;;;;31.20;95.40;;;;;;5055348;28;19913;-66
2022/08/19 10:47:42;;;;;;;;;;;32.00;94.90;;;;;;5051184;28;19917;-66
2022/08/19 10:52:53;;;;;;;;;;;31.40;94.30;;;;;;5061799;28;19913;-66
2022/08/19 10:58:10;;;;;;;;;;;29.60;98.00;;;;;;5058001;28;19920;-65
2022/08/19 11:00:36;;;;;;;;;;;29.10;97.80;;;;;;5069286;28;19917;-65
2022/08/19 11:03:02;;;;;;;;;;;29.00;98.50;;;;;;5057290;28;20345;-65
2022/08/19 11:05:27;;;;;;;;;;;29.50;97.20;;;;;;5066043;28;19951;-68
2022/08/19 11:07:52;;;;;;;;;;;29.50;95.50;;;;;;5053535;28;19917;-65
2022/08/19 11:10:18;;;;;;;;;;;29.90;94.50;;;;;;5057883;28;19919;-65
2022/08/19 11:12:46;;;;;;;;;;;29.50;94.30;;;;;;5044869;28;19962;-65
2022/08/19 11:15:11;;;;;;;;;;;29.10;95.80;;;;;;5069856;28;19920;-65
2022/08/19 11:17:41;;;;;;;;;;;29.50;96.00;;;;;;5065165;28;20050;-65
2022/08/19 11:20:07;;;;;;;;;;;29.10;96.10;;;;;;5060793;28;19924;-65
2022/08/19 11:22:32;;;;;;;;;;;28.70;97.00;;;;;;5068173;28;19909;-65
2022/08/19 11:24:58;;;;;;;;;;;28.60;97.60;;;;;;5070301;28;19912;-65
2022/08/19 11:27:23;;;;;;;;;;;27.90;98.60;;;;;;5045372;28;19963;-65
2022/08/19 11:29:49;;;;;;;;;;;27.60;99.60;;;;;;5029971;28;19909;-65
2022/08/19 11:32:15;;;;;;;;;;;27.50;99.50;;;;;;5063559;28;19927;-65
2022/08/19 11:34:41;;;;;;;;;;;27.40;99.50;;;;;;5060828;28;20337;-65
2022/08/19 11:37:08;;;;;;;;;;;27.30;99.90;;;;;;5056357;28;19917;-65
2022/08/19 11:39:36;;;;;;;;;;;27.40;99.90;;;;;;5054574;28;20381;-64
2022/08/19 11:42:54;;;;;;;;;;;27.50;99.90;;;;;;5042765;28;19920;-65
2022/08/19 11:44:48;;;;;;;;;;;27.60;99.60;;;;;;5051424;28;19963;-65
2022/08/19 11:47:13;;;;;;;;;;;27.40;99.60;;;;;;5053058;28;20351;-65
2022/08/19 11:49:39;;;;;;;;;;;27.20;99.90;;;;;;5058987;28;19913;-64
2022/08/19 11:52:04;;;;;;;;;;;27.40;98.20;;;;;;5036489;28;19909;-65
2022/08/19 11:54:30;;;;;;;;;;;27.50;97.90;;;;;;5072205;28;19913;-65
2022/08/19 11:56:56;;;;;;;;;;;27.70;97.30;;;;;;5070421;28;19939;-65
2022/08/19 11:59:21;;;;;;;;;;;28.10;97.50;;;;;;5054681;28;19957;-65
2022/08/19 12:01:47;;;;;;;;;;;28.20;96.10;;;;;;5054725;28;19913;-65
2022/08/19 12:04:12;;;;;;;;;;;28.70;96.40;;;;;;5053302;28;20329;-65
2022/08/19 12:06:38;;;;;;;;;;;28.70;96.30;;;;;;5053850;28;19920;-65
2022/08/19 12:09:05;;;;;;;;;;;28.70;95.90;;;;;;5066532;28;19909;-65
2022/08/19 12:11:31;;;;;;;;;;;28.80;95.60;;;;;;5074522;28;20402;-65
2022/08/19 12:13:56;;;;;;;;;;;28.90;95.30;;;;;;5055404;28;19909;-65
2022/08/19 12:16:24;;;;;;;;;;;28.60;93.40;;;;;;5053130;28;20367;-65
2022/08/19 12:18:50;;;;;;;;;;;28.00;94.20;;;;;;5053096;28;20379;-65
2022/08/19 12:21:18;;;;;;;;;;;27.70;95.60;;;;;;5053850;28;20375;-65
2022/08/19 12:23:45;;;;;;;;;;;27.70;95.60;;;;;;5057885;28;20354;-64
2022/08/19 12:26:11;;;;;;;;;;;27.60;95.30;;;;;;5036129;28;19909;-64
2022/08/19 12:28:37;;;;;;;;;;;28.00;96.10;;;;;;5054201;28;19940;-64
2022/08/19 12:31:03;;;;;;;;;;;28.00;96.80;;;;;;5054264;28;19909;-65
2022/08/19 12:33:28;;;;;;;;;;;28.00;96.20;;;;;;5053810;28;20007;-64
2022/08/19 12:35:54;;;;;;;;;;;27.60;97.00;;;;;;5054015;28;20359;-64
2022/08/19 12:38:23;;;;;;;;;;;27.30;97.80;;;;;;5053850;28;19958;-65
2022/08/19 12:40:49;;;;;;;;;;;27.20;98.00;;;;;;5054137;28;19916;-64
2022/08/19 12:43:16;;;;;;;;;;;27.10;97.40;;;;;;5054049;28;19932;-64
2022/08/19 12:45:42;;;;;;;;;;;27.10;97.50;;;;;;5053635;28;19919;-64
2022/08/19 12:48:08;;;;;;;;;;;26.90;97.60;;;;;;5054000;28;19909;-64
2022/08/19 12:50:34;;;;;;;;;;;26.90;97.80;;;;;;5053394;28;19909;-64
2022/08/19 12:53:00;;;;;;;;;;;27.00;98.80;;;;;;5053884;28;19909;-64
2022/08/19 12:55:27;;;;;;;;;;;26.80;98.80;;;;;;5053540;28;19963;-64
2022/08/19 12:57:53;;;;;;;;;;;26.80;99.20;;;;;;5053849;28;19908;-64
2022/08/19 13:00:20;;;;;;;;;;;26.80;98.70;;;;;;5053840;28;19915;-65
2022/08/19 13:02:49;;;;;;;;;;;26.90;98.60;;;;;;5053821;28;19916;-65
2022/08/19 13:05:16;;;;;;;;;;;27.00;98.50;;;;;;5053809;28;19909;-65
2022/08/19 13:07:43;;;;;;;;;;;27.00;98.40;;;;;;5036036;28;19909;-64
2022/08/19 13:10:11;;;;;;;;;;;27.20;98.20;;;;;;5053797;28;20275;-64
2022/08/19 13:12:37;;;;;;;;;;;27.70;98.00;;;;;;5053488;28;20423;-65
2022/08/19 13:15:03;;;;;;;;;;;28.10;97.00;;;;;;5053374;28;20334;-64
2022/08/19 13:17:29;;;;;;;;;;;27.70;97.10;;;;;;5053376;28;19908;-64
2022/08/19 13:19:54;;;;;;;;;;;27.50;97.20;;;;;;5053436;28;19908;-65
2022/08/19 13:22:19;;;;;;;;;;;27.40;97.70;;;;;;5053572;28;19909;-65
2022/08/19 13:24:45;;;;;;;;;;;27.20;97.50;;;;;;5035542;28;19915;-65
2022/08/19 13:27:10;;;;;;;;;;;27.30;97.30;;;;;;5053350;28;19913;-64
2022/08/19 13:35:07;;;;;;;;;;;27.60;95.70;;;;;;5052834;28;19978;-64
2022/08/19 13:37:47;;;;;;;;;;;27.60;95.90;;;;;;5053488;28;19909;-64
2022/08/19 13:40:16;;;;;;;;;;;27.40;96.00;;;;;;5053237;28;19936;-64
2022/08/19 13:42:42;;;;;;;;;;;27.60;95.10;;;;;;5053425;28;20389;-64
2022/08/19 13:45:08;;;;;;;;;;;27.90;95.70;;;;;;5053205;28;20003;-65
2022/08/19 13:47:34;;;;;;;;;;;27.90;95.30;;;;;;5053063;28;19908;-65
2022/08/19 13:50:03;;;;;;;;;;;27.70;95.30;;;;;;5053242;28;20328;-64
2022/08/19 13:52:28;;;;;;;;;;;27.40;94.90;;;;;;5053101;28;19909;-64
2022/08/19 13:54:54;;;;;;;;;;;27.40;94.80;;;;;;5053077;28;19909;-64
2022/08/19 13:57:20;;;;;;;;;;;27.50;94.20;;;;;;5053337;28;19967;-64
2022/08/19 13:59:45;;;;;;;;;;;27.30;94.30;;;;;;5053010;28;19954;-64
2022/08/19 14:02:11;;;;;;;;;;;27.10;94.40;;;;;;5053791;28;19952;-65
2022/08/19 14:04:37;;;;;;;;;;;27.00;94.70;;;;;;5057010;28;19909;-64
2022/08/19 14:07:03;;;;;;;;;;;27.00;94.00;;;;;;5056967;28;19979;-65
2022/08/19 14:09:29;;;;;;;;;;;27.00;94.40;;;;;;5056859;28;19971;-64
2022/08/19 14:11:55;;;;;;;;;;;26.80;94.40;;;;;;5038767;28;19909;-65
2022/08/19 14:14:21;;;;;;;;;;;26.90;94.80;;;;;;5056802;28;19909;-65
2022/08/19 14:16:46;;;;;;;;;;;27.30;93.30;;;;;;5035180;28;20511;-65
2022/08/19 14:19:12;;;;;;;;;;;27.60;92.20;;;;;;5036806;28;19909;-64
2022/08/19 14:21:39;;;;;;;;;;;27.60;91.90;;;;;;5036719;28;19909;-64
2022/08/19 14:24:04;;;;;;;;;;;27.50;91.50;;;;;;5036729;28;19916;-64
2022/08/19 14:26:30;;;;;;;;;;;27.80;91.90;;;;;;5036330;28;19909;-64
2022/08/19 14:28:57;;;;;;;;;;;28.20;90.90;;;;;;5036585;28;19909;-65
2022/08/19 14:31:23;;;;;;;;;;;28.40;90.00;;;;;;5036481;28;19917;-64
2022/08/19 14:33:50;;;;;;;;;;;28.10;90.80;;;;;;5036466;28;19996;-65
2022/08/19 14:36:15;;;;;;;;;;;28.00;91.10;;;;;;5036206;28;20279;-64
2022/08/19 14:38:41;;;;;;;;;;;28.20;91.00;;;;;;5036483;28;19920;-64
2022/08/19 14:41:12;;;;;;;;;;;28.20;90.80;;;;;;5036269;28;19909;-64
2022/08/19 14:43:38;;;;;;;;;;;28.20;90.90;;;;;;5036204;28;20003;-64